This is the latest recevied weather packets stored in our database for station/object N9XTN-3. If no packets are shown the sender has not sent any weather packets the latest 10 day(s).
| Time | Temp. | Humidity | Pressure | Rain* | Wind** | Luminosity | Snow |
|---|---|---|---|---|---|---|---|
| 1777901716 | 15° C | 61% | 1002.6 hPa | 0 mm | - | - | - |
| 1777901416 | 15° C | 63% | 1002.7 hPa | 0 mm | - | - | - |
| 1777901116 | 14.44° C | 65% | 1002.9 hPa | 0 mm | - | - | - |
| 1777899316 | 11.67° C | 78% | 1002.9 hPa | 0 mm | - | - | - |
| 1777898416 | 10.56° C | 83% | 1002.8 hPa | 0 mm | - | - | - |
| 1777898116 | 10° C | 84% | 1002.6 hPa | 0 mm | - | - | - |
| 1777897816 | 9.44° C | 86% | 1002.5 hPa | 0 mm | - | - | - |
| 1777897516 | 9.44° C | 87% | 1002.6 hPa | 0 mm | - | - | - |
| 1777895116 | 7.78° C | 90% | 1001.9 hPa | 0 mm | - | - | - |
| 1777893956 | 7.78° C | 88% | 1001.8 hPa | 0 mm | - | - | - |
| 1777891216 | 7.78° C | 85% | 1002.3 hPa | 0 mm | - | - | - |
| 1777890316 | 7.78° C | 87% | 1002.2 hPa | 0 mm | - | - | - |
| 1777887638 | 8.33° C | 84% | 1002.3 hPa | 0 mm | - | - | - |
| 1777887316 | 8.33° C | 84% | 1002.2 hPa | 0 mm | - | - | - |
| 1777886416 | 8.33° C | 83% | 1002.4 hPa | 0 mm | - | - | - |
| 1777885216 | 8.89° C | 80% | 1002.7 hPa | 0 mm | - | - | - |
| 1777884016 | 9.44° C | 79% | 1002.9 hPa | 0 mm | - | - | - |
| 1777878016 | 10° C | 84% | 1004.3 hPa | 0 mm | - | - | - |
| 1777877736 | 10° C | 84% | 1004.5 hPa | 0 mm | - | - | - |
| 1777877416 | 10.56° C | 84% | 1004.5 hPa | 0 mm | - | - | - |
| 1777876216 | 10.56° C | 82% | 1004.7 hPa | 0 mm | - | - | - |
| 1777875056 | 10.56° C | 78% | 1005.1 hPa | 0 mm | - | - | - |
| 1777870218 | 12.78° C | 72% | 1006.2 hPa | 0 mm | - | - | - |
| 1777869619 | 13.33° C | 70% | 1006.2 hPa | 0 mm | - | - | - |
| 1777869017 | 13.33° C | 68% | 1006.3 hPa | 0 mm | - | - | - |
* Rain latest hour (hover to see other rain measurements)
** Current wind speed in m/s (hover to see current wind gust speed)